createdAt,value
2023-04-26T00:00:10.329Z,99171.88
2023-04-26T00:02:38.857Z,99176.19
2023-04-26T00:05:09.694Z,99177.13
2023-04-26T00:07:39.763Z,99183.28
2023-04-26T00:10:09.731Z,99178.44
2023-04-26T00:12:38.179Z,99183.03
2023-04-26T00:15:07.692Z,99184.00
2023-04-26T00:17:36.204Z,99178.94
2023-04-26T00:20:09.281Z,99178.28
2023-04-26T00:22:37.548Z,99187.19
2023-04-26T00:25:08.183Z,99187.19
2023-04-26T00:27:36.606Z,99184.56
2023-04-26T00:30:05.303Z,99184.56
2023-04-26T00:32:35.558Z,99173.66
2023-04-26T00:35:05.443Z,99180.84
2023-04-26T00:37:33.437Z,99187.59
2023-04-26T00:40:01.570Z,99193.13
2023-04-26T00:42:31.091Z,99193.78
2023-04-26T00:44:59.208Z,99187.03
2023-04-26T00:47:28.077Z,99186.06
2023-04-26T00:49:56.421Z,99191.91
2023-04-26T00:52:26.276Z,99192.09
2023-04-26T00:54:56.410Z,99188.41
2023-04-26T00:57:25.478Z,99185.50
2023-04-26T00:59:55.039Z,99189.88
2023-04-26T01:02:24.315Z,99199.00
2023-04-26T01:04:52.418Z,99203.41
2023-04-26T01:07:20.819Z,99189.00
2023-04-26T01:09:50.684Z,99196.50
2023-04-26T01:12:21.046Z,99200.84
2023-04-26T01:14:49.209Z,99192.63
2023-04-26T01:17:20.191Z,99195.25
2023-04-26T01:19:49.275Z,99201.00
2023-04-26T01:22:18.009Z,99198.31
2023-04-26T01:24:51.333Z,99201.78
2023-04-26T01:27:19.689Z,99198.44
2023-04-26T01:29:47.847Z,99189.34
2023-04-26T01:32:17.527Z,99194.38
2023-04-26T01:34:45.758Z,99187.16
2023-04-26T01:37:14.037Z,99190.84
2023-04-26T01:39:42.013Z,99186.88
2023-04-26T01:42:11.904Z,99190.34
2023-04-26T01:44:41.339Z,99188.28
2023-04-26T01:47:09.651Z,99188.38
2023-04-26T01:49:37.716Z,99181.44
2023-04-26T01:52:06.010Z,99194.16
2023-04-26T01:54:34.572Z,99195.06
2023-04-26T01:57:02.823Z,99194.59
2023-04-26T01:59:32.393Z,99191.53
2023-04-26T02:02:00.722Z,99195.97
2023-04-26T02:04:29.384Z,99193.28
2023-04-26T02:06:57.943Z,99196.06
2023-04-26T02:09:26.170Z,99188.00
2023-04-26T02:11:54.274Z,99191.72
2023-04-26T02:14:22.416Z,99194.19
2023-04-26T02:16:53.089Z,99194.78
2023-04-26T02:19:21.278Z,99200.53
2023-04-26T02:21:58.267Z,99206.66
2023-04-26T02:24:27.265Z,99202.16
2023-04-26T02:26:56.251Z,99202.16
2023-04-26T02:29:42.289Z,99198.03
2023-04-26T02:32:14.584Z,99197.84
2023-04-26T02:34:44.875Z,99202.84
2023-04-26T02:37:12.988Z,99202.31
2023-04-26T02:39:41.246Z,99200.47
2023-04-26T02:42:11.241Z,99204.28
2023-04-26T02:44:40.230Z,99199.78
2023-04-26T02:47:08.494Z,99207.28
2023-04-26T02:49:38.288Z,99207.41
2023-04-26T02:52:06.745Z,99206.78
2023-04-26T02:54:34.946Z,99198.56
2023-04-26T02:57:03.300Z,99199.13
2023-04-26T02:59:31.670Z,99199.97
2023-04-26T03:02:00.232Z,99202.78
2023-04-26T03:04:30.778Z,99201.97
2023-04-26T03:07:00.306Z,99193.16
2023-04-26T03:09:28.356Z,99201.25
2023-04-26T03:11:56.634Z,99202.16
2023-04-26T03:14:25.129Z,99210.13
2023-04-26T03:16:53.718Z,99200.56
2023-04-26T03:19:22.037Z,99200.63
2023-04-26T03:21:50.076Z,99205.06
2023-04-26T03:24:19.662Z,99204.00
2023-04-26T03:26:47.693Z,99204.09
2023-04-26T03:29:16.033Z,99202.78
2023-04-26T03:31:44.610Z,99201.72
2023-04-26T03:34:12.931Z,99200.81
2023-04-26T03:36:41.159Z,99204.19
2023-04-26T03:39:09.868Z,99201.72
2023-04-26T03:41:40.633Z,99193.53
2023-04-26T03:44:08.820Z,99200.09
2023-04-26T03:46:36.914Z,99197.22
2023-04-26T03:49:05.064Z,99197.44
2023-04-26T03:51:33.218Z,99197.34
2023-04-26T03:54:01.532Z,99201.47
2023-04-26T03:56:29.556Z,99192.44
2023-04-26T03:58:59.289Z,99199.78
2023-04-26T04:01:27.934Z,99201.75
2023-04-26T04:03:56.774Z,99196.81
2023-04-26T04:06:25.475Z,99195.16
2023-04-26T04:08:55.419Z,99195.63
2023-04-26T04:11:23.868Z,99195.63
2023-04-26T04:13:51.876Z,99198.78
2023-04-26T04:16:21.886Z,99194.06
2023-04-26T04:18:50.552Z,99203.69
2023-04-26T04:21:18.933Z,99200.63
2023-04-26T04:23:47.171Z,99202.97
2023-04-26T04:26:15.374Z,99198.97
2023-04-26T04:28:45.138Z,99204.38
2023-04-26T04:31:13.367Z,99204.06
2023-04-26T04:33:42.910Z,99206.78
2023-04-26T04:36:11.517Z,99209.44
2023-04-26T04:38:39.891Z,99208.38
2023-04-26T04:41:08.742Z,99210.63
2023-04-26T04:43:37.415Z,99213.34
2023-04-26T04:46:05.699Z,99218.41
2023-04-26T04:48:33.876Z,99216.19
2023-04-26T04:51:03.889Z,99222.94
2023-04-26T04:53:32.081Z,99226.91
2023-04-26T04:56:00.254Z,99226.69
2023-04-26T04:58:28.495Z,99234.03
2023-04-26T05:00:57.224Z,99224.22
2023-04-26T05:03:25.559Z,99234.66
2023-04-26T05:05:53.858Z,99239.03
2023-04-26T05:08:23.649Z,99244.25
2023-04-26T05:10:51.956Z,99254.84
2023-04-26T05:13:19.959Z,99247.41
2023-04-26T05:15:47.983Z,99249.63
2023-04-26T05:18:16.187Z,99255.31
2023-04-26T05:20:44.319Z,99269.19
2023-04-26T05:23:12.331Z,99260.78
2023-04-26T05:25:41.799Z,99267.66
2023-04-26T05:28:12.906Z,99266.94
2023-04-26T05:30:41.083Z,99272.94
2023-04-26T05:33:09.168Z,99276.38
2023-04-26T05:35:37.840Z,99286.31
2023-04-26T05:38:06.230Z,99281.78
2023-04-26T05:40:35.764Z,99275.66
2023-04-26T05:43:05.286Z,99272.84
2023-04-26T05:45:33.849Z,99284.97
2023-04-26T05:48:02.261Z,99278.09
2023-04-26T05:50:30.438Z,99278.97
2023-04-26T05:52:59.000Z,99287.84
2023-04-26T05:55:27.445Z,99288.19
2023-04-26T05:57:55.824Z,99282.69
2023-04-26T06:00:27.514Z,99289.97
2023-04-26T06:02:55.837Z,99290.63
2023-04-26T06:05:24.550Z,99296.78
2023-04-26T06:07:53.226Z,99292.16
2023-04-26T06:10:21.657Z,99295.22
2023-04-26T06:12:49.880Z,99298.69
2023-04-26T06:15:18.438Z,99299.09
2023-04-26T06:17:47.996Z,99299.09
2023-04-26T06:20:16.451Z,99295.22
2023-04-26T06:22:44.751Z,99297.34
2023-04-26T06:25:13.107Z,99291.91
2023-04-26T06:27:41.180Z,99286.25
2023-04-26T06:30:10.677Z,99297.84
2023-04-26T06:32:40.693Z,99301.84
2023-04-26T06:35:11.064Z,99301.00
2023-04-26T06:37:40.082Z,99307.88
2023-04-26T06:40:09.646Z,99306.31
2023-04-26T06:42:37.845Z,99309.16
2023-04-26T06:45:06.797Z,99308.81
2023-04-26T06:47:34.929Z,99313.50
2023-04-26T06:50:04.582Z,99306.97
2023-04-26T06:52:34.430Z,99310.50
2023-04-26T06:55:03.862Z,99312.41
2023-04-26T06:57:32.247Z,99310.47
2023-04-26T07:00:00.362Z,99305.66
2023-04-26T07:02:28.681Z,99307.25
2023-04-26T07:04:57.839Z,99310.75
2023-04-26T07:07:25.933Z,99309.66
2023-04-26T07:09:55.595Z,99311.16
2023-04-26T07:12:23.605Z,99300.81
2023-04-26T07:14:51.841Z,99298.59
2023-04-26T07:17:20.014Z,99309.22
2023-04-26T07:19:48.078Z,99311.78
2023-04-26T07:22:16.179Z,99300.09
2023-04-26T07:24:44.178Z,99314.06
2023-04-26T07:27:13.640Z,99311.97
2023-04-26T07:29:41.746Z,99306.81
2023-04-26T07:32:10.142Z,99302.44
2023-04-26T07:34:38.608Z,99300.63
2023-04-26T07:37:07.310Z,99297.94
2023-04-26T07:39:35.375Z,99295.31
2023-04-26T07:42:03.574Z,99298.72
2023-04-26T07:44:33.206Z,99299.00
2023-04-26T07:47:01.479Z,99293.88
2023-04-26T07:49:29.788Z,99288.59
2023-04-26T07:51:59.096Z,99294.81
2023-04-26T07:54:27.203Z,99293.97
2023-04-26T07:56:55.813Z,99281.34
2023-04-26T07:59:24.524Z,99286.63
2023-04-26T08:01:54.032Z,99296.31
2023-04-26T08:04:32.720Z,99294.91
2023-04-26T08:07:01.707Z,99291.56
2023-04-26T08:09:31.000Z,99300.56
2023-04-26T08:12:00.517Z,99285.81
2023-04-26T08:14:30.158Z,99287.72
2023-04-26T08:16:59.656Z,99297.00
2023-04-26T08:19:31.111Z,99295.69
2023-04-26T08:21:59.247Z,99293.84
2023-04-26T08:24:27.241Z,99284.63
2023-04-26T08:26:56.170Z,99292.00
2023-04-26T08:29:24.728Z,99281.63
2023-04-26T08:31:52.799Z,99293.16
2023-04-26T08:34:22.575Z,99295.97
2023-04-26T08:36:51.185Z,99295.59
2023-04-26T08:39:19.506Z,99291.09
2023-04-26T08:41:51.973Z,99289.44
2023-04-26T08:44:24.964Z,99288.03
2023-04-26T08:47:02.192Z,99285.38
2023-04-26T08:49:41.279Z,99283.50
2023-04-26T08:52:12.255Z,99285.22
2023-04-26T08:54:41.421Z,99281.63
2023-04-26T08:57:10.099Z,99282.78
2023-04-26T08:59:39.327Z,99280.00
2023-04-26T09:02:08.748Z,99282.00
2023-04-26T09:04:38.803Z,99276.78
2023-04-26T09:07:10.025Z,99277.81
2023-04-26T09:09:43.756Z,99284.94
2023-04-26T09:12:11.883Z,99286.03
2023-04-26T09:14:40.503Z,99278.13
2023-04-26T09:17:26.514Z,99282.31
2023-04-26T09:19:56.866Z,99263.84
2023-04-26T09:22:36.236Z,99276.38
2023-04-26T09:25:06.063Z,99275.09
2023-04-26T09:27:38.922Z,99268.47
2023-04-26T09:30:10.659Z,99276.09
2023-04-26T09:32:47.775Z,99270.34
2023-04-26T09:35:37.278Z,99278.59
2023-04-26T09:38:12.339Z,99268.38
2023-04-26T09:40:43.246Z,99260.47
2023-04-26T09:43:13.402Z,99261.78
2023-04-26T09:45:47.658Z,99268.81
2023-04-26T09:48:18.090Z,99269.53
2023-04-26T09:50:48.334Z,99264.19
2023-04-26T09:53:34.919Z,99265.56
2023-04-26T09:56:13.742Z,99265.78
2023-04-26T09:58:59.026Z,99266.19
2023-04-26T10:01:30.870Z,99265.50
2023-04-26T10:03:59.976Z,99265.81
2023-04-26T10:06:30.539Z,99260.56
2023-04-26T10:08:59.117Z,99263.38
2023-04-26T10:11:28.682Z,99258.50
2023-04-26T10:13:57.176Z,99263.09
2023-04-26T10:16:26.175Z,99269.09
2023-04-26T10:18:55.289Z,99257.13
2023-04-26T10:21:28.640Z,99261.06
2023-04-26T10:24:00.513Z,99251.56
2023-04-26T10:26:54.081Z,99253.78
2023-04-26T10:29:23.241Z,99249.63
2023-04-26T10:32:12.290Z,99246.03
2023-04-26T10:34:44.761Z,99239.91
2023-04-26T10:37:17.003Z,99244.00
2023-04-26T10:39:50.247Z,99243.16
2023-04-26T10:42:26.623Z,99247.66
2023-04-26T10:44:56.777Z,99236.94
2023-04-26T10:47:31.997Z,99237.78
2023-04-26T10:50:08.592Z,99231.63
2023-04-26T10:52:40.120Z,99231.97
2023-04-26T10:55:10.881Z,99231.66
2023-04-26T10:57:50.049Z,99229.41
2023-04-26T11:00:28.453Z,99225.00
2023-04-26T11:03:01.842Z,99221.41
2023-04-26T11:05:53.200Z,99224.63
2023-04-26T11:08:22.612Z,99218.31
2023-04-26T11:11:12.549Z,99222.94
2023-04-26T11:13:42.228Z,99222.03
2023-04-26T11:16:11.971Z,99222.59
2023-04-26T11:18:42.223Z,99217.28
2023-04-26T11:21:11.329Z,99216.53
2023-04-26T11:23:39.861Z,99212.38
2023-04-26T11:26:11.073Z,99218.47
2023-04-26T11:28:41.336Z,99220.13
2023-04-26T11:31:09.845Z,99222.78
2023-04-26T11:33:41.108Z,99213.22
2023-04-26T11:36:10.040Z,99214.53
2023-04-26T11:38:40.014Z,99208.31
2023-04-26T11:41:11.102Z,99208.44
2023-04-26T11:43:42.017Z,99209.66
2023-04-26T11:46:10.781Z,99209.09
2023-04-26T11:48:41.218Z,99214.44
2023-04-26T11:51:12.093Z,99206.13
2023-04-26T11:53:42.480Z,99201.78
2023-04-26T11:56:17.899Z,99214.28
2023-04-26T11:58:50.871Z,99202.91
2023-04-26T12:01:23.931Z,99207.34
2023-04-26T12:03:54.228Z,99203.53
2023-04-26T12:06:30.485Z,99198.00
2023-04-26T12:08:59.274Z,99197.31
2023-04-26T12:11:27.994Z,99187.63
2023-04-26T12:14:00.399Z,99200.56
2023-04-26T12:16:29.123Z,99194.91
2023-04-26T12:18:58.243Z,99194.44
2023-04-26T12:21:30.325Z,99197.25
2023-04-26T12:24:00.622Z,99188.34
2023-04-26T12:26:45.955Z,99195.47
2023-04-26T12:29:16.168Z,99194.00
2023-04-26T12:31:44.350Z,99190.66
2023-04-26T12:34:13.018Z,99193.00
2023-04-26T12:36:44.692Z,99188.38
2023-04-26T12:39:13.880Z,99177.50
2023-04-26T12:41:44.564Z,99184.09
2023-04-26T12:44:15.986Z,99187.34
2023-04-26T12:46:44.891Z,99177.81
2023-04-26T12:49:13.360Z,99172.75
2023-04-26T12:51:41.914Z,99178.03
2023-04-26T12:54:10.549Z,99174.34
2023-04-26T12:56:43.937Z,99177.75
2023-04-26T12:59:12.309Z,99175.09
2023-04-26T13:01:43.464Z,99178.97
2023-04-26T13:04:11.931Z,99179.03
2023-04-26T13:06:40.565Z,99174.66
2023-04-26T13:09:09.258Z,99170.53
2023-04-26T13:11:37.674Z,99178.47
2023-04-26T13:14:07.071Z,99178.84
2023-04-26T13:16:36.755Z,99175.06
2023-04-26T13:19:06.904Z,99167.53
2023-04-26T13:21:35.217Z,99172.47
2023-04-26T13:24:03.346Z,99174.50
2023-04-26T13:26:33.242Z,99177.41
2023-04-26T13:29:04.400Z,99177.38
2023-04-26T13:31:32.761Z,99172.78
2023-04-26T13:34:01.046Z,99181.97
2023-04-26T13:36:32.329Z,99182.41
2023-04-26T13:39:00.922Z,99179.16
2023-04-26T13:41:33.631Z,99181.88
2023-04-26T13:44:02.143Z,99179.91
2023-04-26T13:46:30.564Z,99176.28
2023-04-26T13:48:59.180Z,99165.16
2023-04-26T13:51:30.126Z,99172.31
2023-04-26T13:54:00.241Z,99171.25
2023-04-26T13:56:28.801Z,99176.53
2023-04-26T13:58:58.071Z,99179.78
2023-04-26T14:01:26.435Z,99176.25
2023-04-26T14:03:56.063Z,99163.41
2023-04-26T14:06:24.776Z,99167.06
2023-04-26T14:08:53.211Z,99166.31
2023-04-26T14:11:23.193Z,99171.44
2023-04-26T14:13:53.267Z,99159.94
2023-04-26T14:16:22.769Z,99160.03
2023-04-26T14:18:51.597Z,99160.25
2023-04-26T14:21:20.008Z,99151.19
2023-04-26T14:23:48.496Z,99147.81
2023-04-26T14:26:18.436Z,99152.84
2023-04-26T14:28:48.461Z,99149.97
2023-04-26T14:31:19.861Z,99144.75
2023-04-26T14:33:48.485Z,99145.00
2023-04-26T14:36:16.781Z,99136.28
2023-04-26T14:38:45.174Z,99130.22
2023-04-26T14:41:16.042Z,99133.38
2023-04-26T14:43:45.987Z,99129.53
2023-04-26T14:46:16.706Z,99126.06
2023-04-26T14:48:45.141Z,99121.13
2023-04-26T14:51:13.428Z,99118.97
2023-04-26T14:53:41.778Z,99119.94
2023-04-26T14:56:09.951Z,99118.00
2023-04-26T14:58:38.122Z,99115.06
2023-04-26T15:01:06.624Z,99110.25
2023-04-26T15:03:36.691Z,99118.22
2023-04-26T15:06:05.347Z,99113.22
2023-04-26T15:08:34.568Z,99111.91
2023-04-26T15:11:03.017Z,99116.78
2023-04-26T15:13:31.395Z,99119.41
2023-04-26T15:15:59.507Z,99113.22
2023-04-26T15:18:28.869Z,99118.47
2023-04-26T15:20:58.542Z,99115.03
2023-04-26T15:23:29.161Z,99113.84
2023-04-26T15:26:02.530Z,99111.88
2023-04-26T15:28:30.974Z,99112.25
2023-04-26T15:31:03.651Z,99104.94
2023-04-26T15:33:31.786Z,99105.53
2023-04-26T15:36:01.687Z,99099.75
2023-04-26T15:38:31.023Z,99109.66
2023-04-26T15:40:59.412Z,99108.09
2023-04-26T15:43:27.986Z,99112.78
2023-04-26T15:45:56.734Z,99122.41
2023-04-26T15:48:26.140Z,99115.09
2023-04-26T15:50:56.916Z,99112.31
2023-04-26T15:53:27.199Z,99117.59
2023-04-26T15:55:55.308Z,99127.56
2023-04-26T15:58:24.706Z,99115.97
2023-04-26T16:00:53.458Z,99114.28
2023-04-26T16:03:21.875Z,99111.03
2023-04-26T16:05:50.679Z,99101.41
2023-04-26T16:08:33.236Z,99106.66
2023-04-26T16:11:09.322Z,99103.56
2023-04-26T16:13:38.985Z,99092.63
2023-04-26T16:16:09.186Z,99096.06
2023-04-26T16:18:39.694Z,99094.28
2023-04-26T16:21:10.411Z,99091.13
2023-04-26T16:23:38.976Z,99089.63
2023-04-26T16:26:09.549Z,99089.63
2023-04-26T16:28:37.723Z,99088.97
2023-04-26T16:31:06.539Z,99097.16
2023-04-26T16:33:35.048Z,99097.78
2023-04-26T16:36:05.976Z,99094.81
2023-04-26T16:38:34.327Z,99090.38
2023-04-26T16:41:02.678Z,99092.78
2023-04-26T16:43:33.473Z,99086.19
2023-04-26T16:46:02.895Z,99092.50
2023-04-26T16:48:33.880Z,99087.47
2023-04-26T16:51:04.867Z,99089.97
2023-04-26T16:53:34.872Z,99084.28
2023-04-26T16:56:04.938Z,99088.91
2023-04-26T16:58:34.827Z,99094.38
2023-04-26T17:01:02.841Z,99092.44
2023-04-26T17:03:31.729Z,99103.13
2023-04-26T17:06:00.532Z,99097.41
2023-04-26T17:08:28.928Z,99105.56
2023-04-26T17:10:59.238Z,99108.94
2023-04-26T17:13:29.548Z,99106.28
2023-04-26T17:15:59.337Z,99113.16
2023-04-26T17:18:27.790Z,99108.81
2023-04-26T17:20:56.903Z,99109.66
2023-04-26T17:23:25.954Z,99106.47
2023-04-26T17:25:56.154Z,99107.59
2023-04-26T17:28:24.538Z,99108.38
2023-04-26T17:30:52.652Z,99104.78
2023-04-26T17:33:22.216Z,99117.03
2023-04-26T17:35:50.346Z,99112.50
2023-04-26T17:38:18.761Z,99111.69
2023-04-26T17:40:47.208Z,99114.25
2023-04-26T17:43:15.263Z,99115.59
2023-04-26T17:45:43.392Z,99117.66
2023-04-26T17:48:13.520Z,99120.91
2023-04-26T17:50:43.429Z,99122.50
2023-04-26T17:53:11.796Z,99123.72
2023-04-26T17:55:40.717Z,99121.03
2023-04-26T17:58:09.217Z,99128.31
2023-04-26T18:00:37.415Z,99115.53
2023-04-26T18:03:06.788Z,99132.03
2023-04-26T18:05:35.196Z,99124.81
2023-04-26T18:08:05.715Z,99128.91
2023-04-26T18:10:34.229Z,99129.66
2023-04-26T18:13:02.877Z,99121.31
2023-04-26T18:15:31.376Z,99129.78
2023-04-26T18:18:00.046Z,99126.28
2023-04-26T18:20:28.305Z,99128.50
2023-04-26T18:22:56.799Z,99125.84
2023-04-26T18:25:26.512Z,99128.88
2023-04-26T18:27:55.009Z,99137.31
2023-04-26T18:30:23.120Z,99133.72
2023-04-26T18:32:53.230Z,99137.13
2023-04-26T18:35:22.431Z,99147.69
2023-04-26T18:37:50.535Z,99145.97
2023-04-26T18:40:18.968Z,99149.47
2023-04-26T18:42:49.596Z,99148.75
2023-04-26T18:45:19.044Z,99157.22
2023-04-26T18:47:47.677Z,99151.88
2023-04-26T18:50:16.144Z,99149.34
2023-04-26T18:52:44.209Z,99151.25
2023-04-26T18:55:12.446Z,99159.72
2023-04-26T18:57:40.716Z,99159.81
2023-04-26T19:00:12.355Z,99157.97
2023-04-26T19:02:41.367Z,99160.56
2023-04-26T19:05:11.743Z,99164.41
2023-04-26T19:07:41.916Z,99159.88
2023-04-26T19:10:11.021Z,99161.72
2023-04-26T19:12:39.225Z,99168.06
2023-04-26T19:15:08.574Z,99165.97
2023-04-26T19:17:39.045Z,99174.75
2023-04-26T19:20:13.068Z,99171.53
2023-04-26T19:22:42.409Z,99173.22
2023-04-26T19:25:13.016Z,99177.88
2023-04-26T19:27:41.330Z,99174.16
2023-04-26T19:30:10.749Z,99179.16
2023-04-26T19:32:40.399Z,99180.19
2023-04-26T19:35:10.277Z,99184.09
2023-04-26T19:37:38.360Z,99184.66
2023-04-26T19:40:09.344Z,99184.66
2023-04-26T19:42:37.798Z,99185.13
2023-04-26T19:45:07.191Z,99186.94
2023-04-26T19:47:35.446Z,99187.84
2023-04-26T19:50:06.145Z,99188.25
2023-04-26T19:52:34.295Z,99185.03
2023-04-26T19:55:02.765Z,99189.94
2023-04-26T19:57:31.318Z,99190.81
2023-04-26T20:00:01.056Z,99194.56
2023-04-26T20:02:29.795Z,99184.00
2023-04-26T20:04:58.196Z,99192.38
2023-04-26T20:07:28.039Z,99197.28
2023-04-26T20:09:56.257Z,99203.06
2023-04-26T20:12:24.860Z,99193.53
2023-04-26T20:14:53.183Z,99198.63
2023-04-26T20:17:21.787Z,99199.28
2023-04-26T20:19:49.898Z,99197.47
2023-04-26T20:22:18.292Z,99194.94
2023-04-26T20:24:48.266Z,99203.31
2023-04-26T20:27:16.627Z,99202.81
2023-04-26T20:29:44.713Z,99196.72
2023-04-26T20:32:13.089Z,99208.72
2023-04-26T20:34:41.683Z,99203.03
2023-04-26T20:37:09.797Z,99208.06
2023-04-26T20:39:37.946Z,99215.63
2023-04-26T20:42:07.658Z,99208.84
2023-04-26T20:44:36.001Z,99217.72
2023-04-26T20:47:04.290Z,99223.63
2023-04-26T20:49:33.986Z,99217.91
2023-04-26T20:52:02.460Z,99224.13
2023-04-26T20:54:31.459Z,99218.19
2023-04-26T20:56:59.616Z,99227.41
2023-04-26T20:59:29.488Z,99222.78
2023-04-26T21:01:59.008Z,99227.78
2023-04-26T21:04:27.509Z,99226.38
2023-04-26T21:06:56.031Z,99226.06
2023-04-26T21:09:24.023Z,99227.09
2023-04-26T21:11:52.136Z,99226.22
2023-04-26T21:14:20.660Z,99233.41
2023-04-26T21:16:51.604Z,99229.81
2023-04-26T21:19:20.410Z,99226.94
2023-04-26T21:21:51.194Z,99222.28
2023-04-26T21:24:19.586Z,99230.63
2023-04-26T21:26:47.659Z,99218.69
2023-04-26T21:29:16.668Z,99223.84
2023-04-26T21:31:47.370Z,99225.47
2023-04-26T21:34:17.504Z,99228.06
2023-04-26T21:36:45.560Z,99227.22
2023-04-26T21:39:14.406Z,99228.22
2023-04-26T21:41:42.655Z,99223.03
2023-04-26T21:44:11.303Z,99229.69
2023-04-26T21:46:39.541Z,99222.81
2023-04-26T21:49:08.196Z,99223.41
2023-04-26T21:51:37.810Z,99227.66
2023-04-26T21:54:09.574Z,99227.34
2023-04-26T21:56:38.069Z,99233.16
2023-04-26T21:59:06.357Z,99230.09
2023-04-26T22:01:34.483Z,99236.81
2023-04-26T22:04:02.958Z,99236.06
2023-04-26T22:06:31.295Z,99240.41
2023-04-26T22:09:01.253Z,99237.34
2023-04-26T22:11:29.724Z,99236.41
2023-04-26T22:13:57.942Z,99239.31
2023-04-26T22:16:26.274Z,99241.00
2023-04-26T22:18:54.300Z,99241.00
2023-04-26T22:21:23.651Z,99241.00
2023-04-26T22:23:52.134Z,99237.59
2023-04-26T22:26:22.112Z,99237.50
2023-04-26T22:28:50.489Z,99246.19
2023-04-26T22:31:18.707Z,99242.34
2023-04-26T22:33:47.030Z,99238.19
2023-04-26T22:36:15.316Z,99253.69
2023-04-26T22:38:43.383Z,99256.22
2023-04-26T22:41:11.740Z,99257.06
2023-04-26T22:43:43.938Z,99251.19
2023-04-26T22:46:12.406Z,99261.66
2023-04-26T22:48:40.603Z,99259.47
2023-04-26T22:51:08.695Z,99263.59
2023-04-26T22:53:36.950Z,99264.13
2023-04-26T22:56:05.547Z,99270.34
2023-04-26T22:58:33.726Z,99265.25
2023-04-26T23:01:03.448Z,99255.53
2023-04-26T23:03:31.762Z,99264.13
2023-04-26T23:06:00.175Z,99259.66
2023-04-26T23:08:28.471Z,99258.25
2023-04-26T23:10:56.700Z,99255.13
2023-04-26T23:13:27.087Z,99258.41
2023-04-26T23:15:55.370Z,99260.81
2023-04-26T23:18:26.836Z,99265.31
2023-04-26T23:20:55.108Z,99262.75
2023-04-26T23:23:23.516Z,99256.63
2023-04-26T23:25:51.597Z,99258.00
2023-04-26T23:28:21.118Z,99262.06
2023-04-26T23:30:49.961Z,99260.81
2023-04-26T23:33:17.957Z,99265.25
2023-04-26T23:35:47.745Z,99258.75
2023-04-26T23:38:15.857Z,99267.44
2023-04-26T23:40:43.883Z,99265.84
2023-04-26T23:43:14.080Z,99265.38
2023-04-26T23:45:47.393Z,99272.63
2023-04-26T23:48:15.737Z,99262.25
2023-04-26T23:50:46.887Z,99267.78
2023-04-26T23:53:16.484Z,99269.28
2023-04-26T23:55:44.856Z,99260.50
2023-04-26T23:58:13.184Z,99261.59
